createdAt,value
2023-11-26T00:00:59.869Z,98993.19
2023-11-26T00:03:32.325Z,98999.31
2023-11-26T00:06:01.437Z,98992.84
2023-11-26T00:08:28.430Z,98999.81
2023-11-26T00:10:56.509Z,98995.94
2023-11-26T00:13:27.807Z,98997.47
2023-11-26T00:15:54.969Z,98994.31
2023-11-26T00:18:22.166Z,98992.34
2023-11-26T00:20:49.111Z,98996.22
2023-11-26T00:23:17.035Z,98999.91
2023-11-26T00:25:43.935Z,98996.31
2023-11-26T00:28:13.191Z,99000.25
2023-11-26T00:30:40.246Z,99000.63
2023-11-26T00:33:09.428Z,99001.13
2023-11-26T00:35:37.956Z,99015.09
2023-11-26T00:38:06.766Z,99019.84
2023-11-26T00:40:35.528Z,99022.78
2023-11-26T00:43:02.886Z,99024.22
2023-11-26T00:45:31.538Z,99018.59
2023-11-26T00:48:02.499Z,99027.78
2023-11-26T00:50:32.367Z,99024.38
2023-11-26T00:53:00.954Z,99024.59
2023-11-26T00:55:30.272Z,99025.53
2023-11-26T00:57:58.503Z,99019.91
2023-11-26T01:00:26.498Z,99022.00
2023-11-26T01:02:58.352Z,99032.41
2023-11-26T01:05:25.467Z,99023.41
2023-11-26T01:07:54.461Z,99019.41
2023-11-26T01:10:25.140Z,99020.09
2023-11-26T01:12:53.392Z,99025.06
2023-11-26T01:15:21.176Z,99020.44
2023-11-26T01:17:49.138Z,99017.28
2023-11-26T01:20:16.306Z,99026.72
2023-11-26T01:22:44.362Z,99019.88
2023-11-26T01:25:12.446Z,99025.53
2023-11-26T01:27:42.591Z,99018.72
2023-11-26T01:30:10.797Z,99017.28
2023-11-26T01:32:37.819Z,99020.59
2023-11-26T01:35:06.062Z,99020.59
2023-11-26T01:37:34.566Z,99015.41
2023-11-26T01:40:02.586Z,99018.97
2023-11-26T01:42:29.917Z,99022.50
2023-11-26T01:44:57.072Z,99028.28
2023-11-26T01:47:25.830Z,99029.22
2023-11-26T01:49:53.279Z,99033.56
2023-11-26T01:52:20.320Z,99040.28
2023-11-26T01:54:47.474Z,99045.50
2023-11-26T01:57:17.646Z,99049.88
2023-11-26T01:59:44.844Z,99046.00
2023-11-26T02:02:11.978Z,99050.69
2023-11-26T02:04:39.257Z,99055.09
2023-11-26T02:07:07.380Z,99058.63
2023-11-26T02:09:34.558Z,99067.59
2023-11-26T02:12:03.707Z,99055.41
2023-11-26T02:14:32.466Z,99059.09
2023-11-26T02:17:04.558Z,99072.81
2023-11-26T02:19:39.978Z,99070.91
2023-11-26T02:22:11.069Z,99083.66
2023-11-26T02:24:53.896Z,99083.75
2023-11-26T02:27:21.359Z,99083.44
2023-11-26T02:29:48.397Z,99088.88
2023-11-26T02:32:15.477Z,99103.50
2023-11-26T02:34:43.118Z,99103.50
2023-11-26T02:37:10.123Z,99114.94
2023-11-26T02:39:37.001Z,99119.44
2023-11-26T02:42:04.182Z,99120.13
2023-11-26T02:44:31.491Z,99122.16
2023-11-26T02:46:59.179Z,99135.25
2023-11-26T02:49:28.324Z,99133.38
2023-11-26T02:51:55.336Z,99138.31
2023-11-26T02:54:22.456Z,99146.00
2023-11-26T02:56:50.257Z,99142.94
2023-11-26T02:59:17.518Z,99141.50
2023-11-26T03:01:44.609Z,99147.44
2023-11-26T03:04:11.842Z,99148.69
2023-11-26T03:06:40.748Z,99154.38
2023-11-26T03:09:26.497Z,99155.78
2023-11-26T03:12:13.556Z,99167.25
2023-11-26T03:14:41.024Z,99169.13
2023-11-26T03:17:08.581Z,99165.84
2023-11-26T03:19:35.657Z,99179.41
2023-11-26T03:22:08.965Z,99187.44
2023-11-26T03:24:36.124Z,99186.38
2023-11-26T03:27:04.147Z,99178.22
2023-11-26T03:29:31.210Z,99179.06
2023-11-26T03:31:58.468Z,99193.22
2023-11-26T03:34:29.877Z,99206.91
2023-11-26T03:36:58.294Z,99206.56
2023-11-26T03:39:26.142Z,99204.19
2023-11-26T03:41:53.098Z,99205.03
2023-11-26T03:44:20.373Z,99209.28
2023-11-26T03:46:47.553Z,99203.59
2023-11-26T03:49:14.507Z,99203.59
2023-11-26T03:51:41.461Z,99206.91
2023-11-26T03:54:08.684Z,99206.91
2023-11-26T03:56:35.597Z,99203.38
2023-11-26T03:59:02.636Z,99216.22
2023-11-26T04:01:29.634Z,99211.28
2023-11-26T04:03:56.741Z,99206.31
2023-11-26T04:06:24.256Z,99218.34
2023-11-26T04:08:51.193Z,99206.56
2023-11-26T04:11:18.141Z,99221.06
2023-11-26T04:13:45.271Z,99219.41
2023-11-26T04:16:14.738Z,99220.00
2023-11-26T04:18:41.696Z,99222.00
2023-11-26T04:21:11.389Z,99229.56
2023-11-26T04:23:38.610Z,99224.16
2023-11-26T04:26:08.172Z,99224.97
2023-11-26T04:28:35.460Z,99222.75
2023-11-26T04:31:03.875Z,99223.66
2023-11-26T04:33:30.877Z,99223.91
2023-11-26T04:35:57.959Z,99224.16
2023-11-26T04:38:25.227Z,99222.84
2023-11-26T04:40:52.615Z,99229.72
2023-11-26T04:43:19.669Z,99228.28
2023-11-26T04:45:46.803Z,99235.13
2023-11-26T04:48:13.997Z,99234.31
2023-11-26T04:50:40.922Z,99241.16
2023-11-26T04:53:07.944Z,99239.50
2023-11-26T04:55:34.952Z,99239.84
2023-11-26T04:58:01.828Z,99244.91
2023-11-26T05:00:30.276Z,99244.31
2023-11-26T05:02:57.312Z,99249.06
2023-11-26T05:05:24.645Z,99252.09
2023-11-26T05:07:51.610Z,99263.81
2023-11-26T05:10:18.681Z,99265.47
2023-11-26T05:12:45.548Z,99266.06
2023-11-26T05:15:12.655Z,99268.69
2023-11-26T05:17:40.070Z,99275.63
2023-11-26T05:20:14.753Z,99270.78
2023-11-26T05:22:42.141Z,99273.75
2023-11-26T05:25:09.252Z,99276.13
2023-11-26T05:27:36.388Z,99282.47
2023-11-26T05:30:04.965Z,99289.09
2023-11-26T05:32:32.118Z,99288.13
2023-11-26T05:34:59.982Z,99295.00
2023-11-26T05:37:26.957Z,99295.69
2023-11-26T05:39:53.889Z,99293.22
2023-11-26T05:42:20.718Z,99299.03
2023-11-26T05:44:47.604Z,99290.50
2023-11-26T05:47:14.715Z,99293.91
2023-11-26T05:49:41.751Z,99291.69
2023-11-26T05:52:08.677Z,99291.69
2023-11-26T05:54:35.774Z,99297.34
2023-11-26T05:57:02.665Z,99304.22
2023-11-26T05:59:29.593Z,99311.41
2023-11-26T06:01:56.894Z,99306.09
2023-11-26T06:04:24.938Z,99309.88
2023-11-26T06:06:52.277Z,99304.22
2023-11-26T06:09:19.213Z,99304.81
2023-11-26T06:11:47.314Z,99308.38
2023-11-26T06:14:14.587Z,99303.28
2023-11-26T06:16:45.278Z,99312.88
2023-11-26T06:19:12.992Z,99312.50
2023-11-26T06:21:39.938Z,99317.13
2023-11-26T06:24:07.824Z,99321.94
2023-11-26T06:26:36.420Z,99324.31
2023-11-26T06:29:03.748Z,99321.97
2023-11-26T06:31:31.574Z,99326.56
2023-11-26T06:33:59.019Z,99325.50
2023-11-26T06:36:26.844Z,99324.78
2023-11-26T06:38:55.476Z,99328.31
2023-11-26T06:41:29.407Z,99335.28
2023-11-26T06:43:57.912Z,99350.75
2023-11-26T06:46:25.691Z,99348.25
2023-11-26T06:48:52.838Z,99340.09
2023-11-26T06:51:19.821Z,99338.03
2023-11-26T06:53:47.613Z,99338.38
2023-11-26T06:56:15.422Z,99354.44
2023-11-26T06:58:44.943Z,99347.09
2023-11-26T07:01:12.992Z,99346.22
2023-11-26T07:03:40.765Z,99354.22
2023-11-26T07:06:10.102Z,99363.19
2023-11-26T07:08:39.010Z,99357.94
2023-11-26T07:11:20.097Z,99362.50
2023-11-26T07:13:49.361Z,99362.31
2023-11-26T07:16:18.455Z,99359.47
2023-11-26T07:18:46.678Z,99363.91
2023-11-26T07:21:13.836Z,99369.69
2023-11-26T07:23:41.041Z,99382.03
2023-11-26T07:26:16.471Z,99382.66
2023-11-26T07:28:43.518Z,99389.72
2023-11-26T07:31:18.368Z,99392.28
2023-11-26T07:33:46.870Z,99392.13
2023-11-26T07:36:20.937Z,99397.09
2023-11-26T07:38:48.067Z,99399.19
2023-11-26T07:41:15.056Z,99402.50
2023-11-26T07:43:43.032Z,99403.38
2023-11-26T07:46:11.441Z,99397.38
2023-11-26T07:48:39.977Z,99410.03
2023-11-26T07:51:07.513Z,99405.22
2023-11-26T07:53:35.129Z,99406.53
2023-11-26T07:56:02.593Z,99407.34
2023-11-26T07:58:33.121Z,99415.63
2023-11-26T08:01:00.458Z,99413.69
2023-11-26T08:03:28.608Z,99412.78
2023-11-26T08:05:55.941Z,99413.53
2023-11-26T08:08:23.937Z,99427.19
2023-11-26T08:10:52.258Z,99419.50
2023-11-26T08:13:24.320Z,99423.91
2023-11-26T08:15:51.888Z,99427.88
2023-11-26T08:18:19.779Z,99423.94
2023-11-26T08:20:48.481Z,99423.38
2023-11-26T08:23:15.532Z,99419.03
2023-11-26T08:25:47.841Z,99425.09
2023-11-26T08:28:17.719Z,99433.09
2023-11-26T08:30:49.134Z,99430.25
2023-11-26T08:33:22.514Z,99423.69
2023-11-26T08:35:57.741Z,99427.50
2023-11-26T08:38:25.725Z,99438.66
2023-11-26T08:40:55.592Z,99432.09
2023-11-26T08:43:22.979Z,99436.75
2023-11-26T08:45:50.260Z,99436.34
2023-11-26T08:48:18.350Z,99442.81
2023-11-26T08:50:45.301Z,99443.25
2023-11-26T08:53:14.131Z,99450.50
2023-11-26T08:55:41.381Z,99448.84
2023-11-26T08:58:08.719Z,99460.72
2023-11-26T09:00:36.102Z,99454.66
2023-11-26T09:03:03.103Z,99463.19
2023-11-26T09:05:30.233Z,99454.38
2023-11-26T09:07:57.357Z,99462.78
2023-11-26T09:10:24.761Z,99460.28
2023-11-26T09:12:52.118Z,99459.88
2023-11-26T09:15:19.470Z,99466.09
2023-11-26T09:17:46.693Z,99475.81
2023-11-26T09:20:14.334Z,99470.03
2023-11-26T09:22:42.187Z,99466.13
2023-11-26T09:25:10.967Z,99473.81
2023-11-26T09:27:38.116Z,99468.28
2023-11-26T09:30:09.763Z,99474.06
2023-11-26T09:32:37.152Z,99478.81
2023-11-26T09:35:04.557Z,99475.41
2023-11-26T09:37:31.558Z,99485.16
2023-11-26T09:39:58.670Z,99484.34
2023-11-26T09:42:26.523Z,99486.69
2023-11-26T09:44:53.720Z,99490.41
2023-11-26T09:47:20.895Z,99484.63
2023-11-26T09:49:48.684Z,99484.34
2023-11-26T09:52:18.304Z,99488.22
2023-11-26T09:54:45.325Z,99486.56
2023-11-26T09:57:14.249Z,99488.59
2023-11-26T09:59:41.586Z,99488.69
2023-11-26T10:02:11.702Z,99479.25
2023-11-26T10:04:46.181Z,99493.84
2023-11-26T10:07:13.205Z,99487.72
2023-11-26T10:09:40.346Z,99476.94
2023-11-26T10:12:07.906Z,99485.22
2023-11-26T10:14:34.924Z,99478.88
2023-11-26T10:17:13.394Z,99490.88
2023-11-26T10:19:41.364Z,99495.81
2023-11-26T10:22:08.378Z,99497.41
2023-11-26T10:24:35.316Z,99510.59
2023-11-26T10:27:15.396Z,99507.47
2023-11-26T10:29:44.645Z,99512.88
2023-11-26T10:32:14.021Z,99507.56
2023-11-26T10:34:43.112Z,99503.72
2023-11-26T10:37:21.823Z,99539.63
2023-11-26T10:40:00.111Z,99527.19
2023-11-26T10:42:30.945Z,99519.81
2023-11-26T10:44:59.845Z,99521.72
2023-11-26T10:47:29.541Z,99522.16
2023-11-26T10:50:06.223Z,99524.63
2023-11-26T10:52:47.324Z,99516.91
2023-11-26T10:55:31.334Z,99529.03
2023-11-26T10:58:17.202Z,99526.28
2023-11-26T11:00:49.846Z,99520.22
2023-11-26T11:03:17.293Z,99528.03
2023-11-26T11:05:48.533Z,99530.72
2023-11-26T11:08:17.412Z,99518.28
2023-11-26T11:11:19.194Z,99511.00
2023-11-26T11:13:47.618Z,99521.69
2023-11-26T11:16:14.640Z,99527.56
2023-11-26T11:18:47.535Z,99515.41
2023-11-26T11:21:18.487Z,99525.88
2023-11-26T11:23:51.398Z,99531.69
2023-11-26T11:26:19.865Z,99540.41
2023-11-26T11:28:49.335Z,99528.13
2023-11-26T11:31:18.880Z,99531.41
2023-11-26T11:33:59.233Z,99536.69
2023-11-26T11:36:46.133Z,99532.09
2023-11-26T11:39:17.226Z,99543.13
2023-11-26T11:42:00.039Z,99541.00
2023-11-26T11:44:46.093Z,99543.06
2023-11-26T11:47:34.056Z,99546.97
2023-11-26T11:50:01.827Z,99558.47
2023-11-26T11:52:28.736Z,99562.81
2023-11-26T11:55:06.908Z,99566.09
2023-11-26T11:57:48.372Z,99575.13
2023-11-26T12:00:22.895Z,99579.78
2023-11-26T12:02:51.229Z,99575.41
2023-11-26T12:05:26.759Z,99573.00
2023-11-26T12:07:54.751Z,99583.13
2023-11-26T12:10:29.697Z,99577.66
2023-11-26T12:13:08.057Z,99576.84
2023-11-26T12:15:36.411Z,99582.41
2023-11-26T12:18:03.595Z,99585.09
2023-11-26T12:20:30.920Z,99593.16
2023-11-26T12:22:58.373Z,99583.22
2023-11-26T12:25:25.428Z,99584.13
2023-11-26T12:28:10.570Z,99582.22
2023-11-26T12:30:39.651Z,99586.78
2023-11-26T12:33:09.120Z,99598.47
2023-11-26T12:35:39.293Z,99599.09
2023-11-26T12:38:08.299Z,99590.66
2023-11-26T12:40:37.500Z,99610.25
2023-11-26T12:43:04.995Z,99621.19
2023-11-26T12:45:32.205Z,99608.78
2023-11-26T12:47:59.480Z,99630.84
2023-11-26T12:50:40.374Z,99628.50
2023-11-26T12:53:12.954Z,99621.97
2023-11-26T12:55:47.118Z,99642.28
2023-11-26T12:58:26.404Z,99650.69
2023-11-26T13:00:53.665Z,99652.66
2023-11-26T13:03:21.775Z,99650.16
2023-11-26T13:05:50.253Z,99655.94
2023-11-26T13:08:22.767Z,99631.72
2023-11-26T13:10:56.817Z,99639.84
2023-11-26T13:13:34.624Z,99651.03
2023-11-26T13:16:04.659Z,99651.59
2023-11-26T13:18:32.112Z,99666.22
2023-11-26T13:21:02.915Z,99671.47
2023-11-26T13:23:30.657Z,99670.09
2023-11-26T13:25:59.278Z,99693.25
2023-11-26T13:28:28.564Z,99687.44
2023-11-26T13:30:55.700Z,99668.59
2023-11-26T13:33:23.121Z,99689.00
2023-11-26T13:35:51.654Z,99686.41
2023-11-26T13:38:19.206Z,99675.59
2023-11-26T13:40:49.373Z,99691.19
2023-11-26T13:43:20.989Z,99701.81
2023-11-26T13:45:48.498Z,99718.38
2023-11-26T13:48:15.884Z,99721.09
2023-11-26T13:50:43.469Z,99710.34
2023-11-26T13:53:11.042Z,99710.22
2023-11-26T13:55:38.004Z,99717.38
2023-11-26T13:58:06.782Z,99721.63
2023-11-26T14:00:34.144Z,99716.41
2023-11-26T14:03:03.100Z,99718.59
2023-11-26T14:05:30.735Z,99722.31
2023-11-26T14:07:58.009Z,99725.75
2023-11-26T14:10:28.661Z,99729.91
2023-11-26T14:13:09.351Z,99725.34
2023-11-26T14:15:37.030Z,99739.44
2023-11-26T14:18:07.629Z,99735.03
2023-11-26T14:20:39.098Z,99739.84
2023-11-26T14:23:09.168Z,99744.94
2023-11-26T14:25:36.446Z,99751.69
2023-11-26T14:28:04.006Z,99761.59
2023-11-26T14:30:32.639Z,99768.06
2023-11-26T14:33:00.124Z,99783.19
2023-11-26T14:35:27.118Z,99793.50
2023-11-26T14:37:55.415Z,99787.41
2023-11-26T14:40:23.429Z,99788.22
2023-11-26T14:42:50.670Z,99793.38
2023-11-26T14:45:17.728Z,99817.97
2023-11-26T14:47:46.445Z,99795.78
2023-11-26T14:50:19.240Z,99794.66
2023-11-26T14:52:47.849Z,99805.34
2023-11-26T14:55:15.429Z,99802.56
2023-11-26T14:57:43.452Z,99806.38
2023-11-26T15:00:12.124Z,99811.63
2023-11-26T15:02:39.780Z,99806.63
2023-11-26T15:05:08.407Z,99817.34
2023-11-26T15:07:35.613Z,99821.16
2023-11-26T15:10:04.609Z,99817.00
2023-11-26T15:12:31.876Z,99816.44
2023-11-26T15:14:58.947Z,99829.19
2023-11-26T15:17:25.933Z,99826.72
2023-11-26T15:19:53.285Z,99823.25
2023-11-26T15:22:20.341Z,99819.34
2023-11-26T15:24:49.773Z,99823.19
2023-11-26T15:27:17.177Z,99827.59
2023-11-26T15:29:45.644Z,99827.00
2023-11-26T15:32:13.365Z,99838.16
2023-11-26T15:34:41.113Z,99843.13
2023-11-26T15:37:10.737Z,99845.03
2023-11-26T15:39:38.017Z,99848.50
2023-11-26T15:42:05.459Z,99852.38
2023-11-26T15:44:32.503Z,99855.63
2023-11-26T15:46:59.604Z,99851.34
2023-11-26T15:49:27.360Z,99856.56
2023-11-26T15:51:55.390Z,99865.50
2023-11-26T15:54:22.534Z,99870.41
2023-11-26T15:56:53.554Z,99880.00
2023-11-26T15:59:24.477Z,99874.31
2023-11-26T16:01:52.768Z,99887.63
2023-11-26T16:04:20.348Z,99885.72
2023-11-26T16:06:47.776Z,99883.34
2023-11-26T16:09:15.086Z,99886.09
2023-11-26T16:11:43.853Z,99900.69
2023-11-26T16:14:10.917Z,99907.84
2023-11-26T16:16:37.874Z,99902.16
2023-11-26T16:19:05.135Z,99900.38
2023-11-26T16:21:32.880Z,99903.31
2023-11-26T16:24:00.190Z,99914.97
2023-11-26T16:26:29.129Z,99905.47
2023-11-26T16:28:56.257Z,99908.56
2023-11-26T16:31:23.713Z,99912.81
2023-11-26T16:33:54.216Z,99910.34
2023-11-26T16:36:23.583Z,99924.56
2023-11-26T16:38:50.776Z,99919.00
2023-11-26T16:41:20.720Z,99914.03
2023-11-26T16:43:48.513Z,99919.25
2023-11-26T16:46:17.744Z,99923.63
2023-11-26T16:48:47.063Z,99929.22
2023-11-26T16:51:14.978Z,99933.47
2023-11-26T16:53:42.867Z,99940.84
2023-11-26T16:56:11.519Z,99948.19
2023-11-26T16:58:40.019Z,99951.94
2023-11-26T17:01:08.940Z,99947.78
2023-11-26T17:03:36.555Z,99965.22
2023-11-26T17:06:04.736Z,99946.03
2023-11-26T17:08:31.829Z,99951.38
2023-11-26T17:10:59.515Z,99948.84
2023-11-26T17:13:27.790Z,99948.63
2023-11-26T17:15:55.314Z,99957.16
2023-11-26T17:18:22.801Z,99962.88
2023-11-26T17:20:51.465Z,99972.00
2023-11-26T17:23:18.916Z,99980.22
2023-11-26T17:25:52.266Z,99984.25
2023-11-26T17:28:20.382Z,99986.03
2023-11-26T17:30:50.808Z,99985.69
2023-11-26T17:33:19.395Z,99994.47
2023-11-26T17:35:47.395Z,99989.47
2023-11-26T17:38:14.546Z,99999.22
2023-11-26T17:40:42.449Z,100002.50
2023-11-26T17:43:10.487Z,100007.59
2023-11-26T17:45:37.622Z,100008.88
2023-11-26T17:48:05.504Z,100014.94
2023-11-26T17:50:33.953Z,100019.44
2023-11-26T17:53:07.818Z,100024.53
2023-11-26T17:55:40.300Z,100024.75
2023-11-26T17:58:07.552Z,100036.25
2023-11-26T18:00:35.959Z,100030.31
2023-11-26T18:03:02.966Z,100040.88
2023-11-26T18:05:30.157Z,100041.94
2023-11-26T18:07:58.448Z,100043.28
2023-11-26T18:10:25.642Z,100036.53
2023-11-26T18:12:52.907Z,100058.09
2023-11-26T18:15:20.261Z,100043.28
2023-11-26T18:17:48.105Z,100053.09
2023-11-26T18:20:19.434Z,100042.88
2023-11-26T18:22:47.027Z,100036.22
2023-11-26T18:25:14.824Z,100057.81
2023-11-26T18:27:42.856Z,100057.09
2023-11-26T18:30:11.541Z,100054.56
2023-11-26T18:32:39.248Z,100060.41
2023-11-26T18:35:06.538Z,100058.84
2023-11-26T18:37:34.035Z,100059.69
2023-11-26T18:40:01.437Z,100068.06
2023-11-26T18:42:28.639Z,100069.63
2023-11-26T18:44:56.522Z,100070.97
2023-11-26T18:47:23.505Z,100079.56
2023-11-26T18:49:50.596Z,100084.22
2023-11-26T18:52:18.747Z,100074.03
2023-11-26T18:54:46.431Z,100075.09
2023-11-26T18:57:13.792Z,100091.78
2023-11-26T18:59:41.590Z,100084.06
2023-11-26T19:02:09.465Z,100084.59
2023-11-26T19:04:39.603Z,100086.78
2023-11-26T19:07:07.768Z,100086.78
2023-11-26T19:09:35.159Z,100090.31
2023-11-26T19:12:02.879Z,100089.81
2023-11-26T19:14:31.237Z,100088.13
2023-11-26T19:17:00.251Z,100082.00
2023-11-26T19:19:27.343Z,100084.81
2023-11-26T19:21:54.960Z,100085.66
2023-11-26T19:24:22.051Z,100090.97
2023-11-26T19:26:48.938Z,100091.19
2023-11-26T19:29:15.924Z,100096.63
2023-11-26T19:31:43.164Z,100099.22
2023-11-26T19:34:10.497Z,100100.97
2023-11-26T19:36:37.869Z,100103.50
2023-11-26T19:39:04.863Z,100106.81
2023-11-26T19:41:32.020Z,100109.94
2023-11-26T19:43:59.067Z,100111.59
2023-11-26T19:46:26.355Z,100111.00
2023-11-26T19:48:53.368Z,100112.53
2023-11-26T19:51:26.381Z,100111.81
2023-11-26T19:53:54.769Z,100110.78
2023-11-26T19:56:22.401Z,100116.41
2023-11-26T19:58:49.298Z,100114.34
2023-11-26T20:01:19.006Z,100114.75
2023-11-26T20:03:46.988Z,100113.09
2023-11-26T20:06:14.276Z,100117.47
2023-11-26T20:08:41.423Z,100120.91
2023-11-26T20:11:09.823Z,100119.66
2023-11-26T20:13:37.044Z,100113.72
2023-11-26T20:16:04.467Z,100116.66
2023-11-26T20:18:34.934Z,100114.56
2023-11-26T20:21:02.770Z,100112.16
2023-11-26T20:23:29.974Z,100115.81
2023-11-26T20:25:56.927Z,100112.25
2023-11-26T20:28:24.719Z,100108.72
2023-11-26T20:30:55.878Z,100116.22
2023-11-26T20:33:30.891Z,100121.44
2023-11-26T20:35:57.954Z,100138.94
2023-11-26T20:38:24.849Z,100135.59
2023-11-26T20:40:53.122Z,100133.94
2023-11-26T20:43:20.112Z,100135.59
2023-11-26T20:45:47.324Z,100137.25
2023-11-26T20:48:14.268Z,100128.91
2023-11-26T20:50:41.997Z,100131.84
2023-11-26T20:53:08.919Z,100134.13
2023-11-26T20:55:36.066Z,100137.88
2023-11-26T20:58:03.475Z,100140.03
2023-11-26T21:00:30.356Z,100147.09
2023-11-26T21:02:59.902Z,100152.63
2023-11-26T21:05:26.946Z,100153.31
2023-11-26T21:07:53.860Z,100145.00
2023-11-26T21:10:22.880Z,100145.94
2023-11-26T21:12:50.040Z,100151.13
2023-11-26T21:15:17.062Z,100148.53
2023-11-26T21:17:44.056Z,100150.81
2023-11-26T21:20:12.747Z,100153.22
2023-11-26T21:22:41.259Z,100150.94
2023-11-26T21:25:08.586Z,100151.78
2023-11-26T21:27:35.906Z,100161.75
2023-11-26T21:30:03.324Z,100151.63
2023-11-26T21:32:31.502Z,100148.41
2023-11-26T21:34:59.060Z,100156.63
2023-11-26T21:37:30.217Z,100149.31
2023-11-26T21:39:57.223Z,100158.16
2023-11-26T21:42:24.220Z,100161.66
2023-11-26T21:44:51.504Z,100162.88
2023-11-26T21:47:18.524Z,100168.94
2023-11-26T21:49:48.484Z,100169.31
2023-11-26T21:52:16.605Z,100161.44
2023-11-26T21:54:43.812Z,100172.25
2023-11-26T21:57:10.681Z,100170.94
2023-11-26T21:59:37.637Z,100175.41
2023-11-26T22:02:04.998Z,100169.28
2023-11-26T22:04:32.451Z,100178.00
2023-11-26T22:06:59.397Z,100179.69
2023-11-26T22:09:26.309Z,100181.94
2023-11-26T22:11:53.877Z,100182.84
2023-11-26T22:14:20.889Z,100177.84
2023-11-26T22:16:48.268Z,100175.47
2023-11-26T22:19:15.168Z,100181.38
2023-11-26T22:21:42.117Z,100175.66
2023-11-26T22:24:09.686Z,100186.97
2023-11-26T22:26:40.405Z,100182.59
2023-11-26T22:29:07.427Z,100180.53
2023-11-26T22:31:34.831Z,100184.72
2023-11-26T22:34:02.649Z,100181.94
2023-11-26T22:36:31.602Z,100186.00
2023-11-26T22:38:59.365Z,100179.75
2023-11-26T22:41:28.482Z,100174.56
2023-11-26T22:43:59.459Z,100174.47
2023-11-26T22:46:28.347Z,100183.13
2023-11-26T22:48:58.409Z,100178.84
2023-11-26T22:51:26.143Z,100185.59
2023-11-26T22:53:53.858Z,100191.47
2023-11-26T22:56:25.765Z,100182.34
2023-11-26T22:58:56.377Z,100179.56
2023-11-26T23:01:24.164Z,100190.16
2023-11-26T23:03:52.838Z,100182.09
2023-11-26T23:06:20.081Z,100183.94
2023-11-26T23:08:46.978Z,100182.44
2023-11-26T23:11:19.852Z,100183.34
2023-11-26T23:13:47.640Z,100184.22
2023-11-26T23:16:17.836Z,100184.88
2023-11-26T23:18:45.312Z,100178.69
2023-11-26T23:21:16.328Z,100168.66
2023-11-26T23:23:51.743Z,100166.03
2023-11-26T23:26:23.657Z,100171.38
2023-11-26T23:28:51.074Z,100165.38
2023-11-26T23:31:19.753Z,100168.28
2023-11-26T23:33:48.418Z,100168.09
2023-11-26T23:36:16.149Z,100160.97
2023-11-26T23:38:44.481Z,100163.00
2023-11-26T23:41:12.526Z,100158.84
2023-11-26T23:43:40.598Z,100161.69
2023-11-26T23:46:08.031Z,100157.81
2023-11-26T23:48:35.054Z,100161.16
2023-11-26T23:51:02.046Z,100164.78
2023-11-26T23:53:29.283Z,100160.41
2023-11-26T23:55:56.124Z,100159.38
2023-11-26T23:58:23.069Z,100156.06
